sensor_id;sensor_type;location;lat;lon;timestamp;P1;durP1;ratioP1;P2;durP2;ratioP2
75990;SDS011;64673;52.276;10.560;2023-02-02T00:00:53;4.63;;;0.90;;
75990;SDS011;64673;52.276;10.560;2023-02-02T00:03:19;7.85;;;0.90;;
75990;SDS011;64673;52.276;10.560;2023-02-02T00:05:48;7.53;;;1.08;;
75990;SDS011;64673;52.276;10.560;2023-02-02T00:08:16;23.55;;;1.20;;
75990;SDS011;64673;52.276;10.560;2023-02-02T00:10:42;11.65;;;1.75;;
75990;SDS011;64673;52.276;10.560;2023-02-02T00:13:08;12.82;;;1.40;;
75990;SDS011;64673;52.276;10.560;2023-02-02T00:15:33;11.60;;;0.85;;
75990;SDS011;64673;52.276;10.560;2023-02-02T00:17:58;10.88;;;1.40;;
75990;SDS011;64673;52.276;10.560;2023-02-02T00:20:24;8.82;;;0.82;;
75990;SDS011;64673;52.276;10.560;2023-02-02T00:22:49;7.68;;;1.60;;
75990;SDS011;64673;52.276;10.560;2023-02-02T00:25:14;5.68;;;0.93;;
75990;SDS011;64673;52.276;10.560;2023-02-02T00:27:40;8.95;;;1.00;;
75990;SDS011;64673;52.276;10.560;2023-02-02T00:30:05;5.82;;;1.05;;
75990;SDS011;64673;52.276;10.560;2023-02-02T00:32:31;6.82;;;0.85;;
75990;SDS011;64673;52.276;10.560;2023-02-02T00:34:57;6.25;;;1.13;;
75990;SDS011;64673;52.276;10.560;2023-02-02T00:37:22;11.60;;;1.95;;
75990;SDS011;64673;52.276;10.560;2023-02-02T00:39:47;6.05;;;1.00;;
75990;SDS011;64673;52.276;10.560;2023-02-02T00:42:12;12.20;;;1.73;;
75990;SDS011;64673;52.276;10.560;2023-02-02T00:44:38;7.43;;;0.88;;
75990;SDS011;64673;52.276;10.560;2023-02-02T00:47:21;8.88;;;1.58;;
75990;SDS011;64673;52.276;10.560;2023-02-02T00:49:47;5.43;;;1.10;;
75990;SDS011;64673;52.276;10.560;2023-02-02T00:52:12;11.68;;;1.08;;
75990;SDS011;64673;52.276;10.560;2023-02-02T00:54:38;7.78;;;0.95;;
75990;SDS011;64673;52.276;10.560;2023-02-02T00:57:03;5.93;;;1.52;;
75990;SDS011;64673;52.276;10.560;2023-02-02T00:59:28;7.75;;;1.55;;
75990;SDS011;64673;52.276;10.560;2023-02-02T01:01:54;6.70;;;1.17;;
75990;SDS011;64673;52.276;10.560;2023-02-02T01:04:19;4.35;;;0.60;;
75990;SDS011;64673;52.276;10.560;2023-02-02T01:06:45;9.52;;;1.02;;
75990;SDS011;64673;52.276;10.560;2023-02-02T01:09:10;6.38;;;1.13;;
75990;SDS011;64673;52.276;10.560;2023-02-02T01:11:35;7.32;;;1.02;;
75990;SDS011;64673;52.276;10.560;2023-02-02T01:14:01;9.80;;;0.77;;
75990;SDS011;64673;52.276;10.560;2023-02-02T01:16:27;10.40;;;1.27;;
75990;SDS011;64673;52.276;10.560;2023-02-02T01:18:53;6.43;;;1.45;;
75990;SDS011;64673;52.276;10.560;2023-02-02T01:21:18;10.65;;;0.77;;
75990;SDS011;64673;52.276;10.560;2023-02-02T01:23:44;6.07;;;0.90;;
75990;SDS011;64673;52.276;10.560;2023-02-02T01:26:10;4.38;;;0.65;;
75990;SDS011;64673;52.276;10.560;2023-02-02T01:28:36;8.73;;;1.02;;
75990;SDS011;64673;52.276;10.560;2023-02-02T01:31:07;7.90;;;0.80;;
75990;SDS011;64673;52.276;10.560;2023-02-02T01:33:36;5.00;;;0.50;;
75990;SDS011;64673;52.276;10.560;2023-02-02T01:36:04;8.55;;;1.02;;
75990;SDS011;64673;52.276;10.560;2023-02-02T01:38:31;15.25;;;1.23;;
75990;SDS011;64673;52.276;10.560;2023-02-02T01:40:59;5.97;;;0.50;;
75990;SDS011;64673;52.276;10.560;2023-02-02T01:43:27;9.90;;;1.63;;
75990;SDS011;64673;52.276;10.560;2023-02-02T01:46:17;6.90;;;0.70;;
75990;SDS011;64673;52.276;10.560;2023-02-02T01:48:44;4.47;;;0.85;;
75990;SDS011;64673;52.276;10.560;2023-02-02T01:51:17;6.63;;;0.80;;
75990;SDS011;64673;52.276;10.560;2023-02-02T01:53:49;7.05;;;1.00;;
75990;SDS011;64673;52.276;10.560;2023-02-02T01:56:18;8.05;;;1.10;;
75990;SDS011;64673;52.276;10.560;2023-02-02T01:58:50;5.07;;;1.60;;
75990;SDS011;64673;52.276;10.560;2023-02-02T02:01:16;8.77;;;1.60;;
75990;SDS011;64673;52.276;10.560;2023-02-02T02:03:41;5.05;;;1.17;;
75990;SDS011;64673;52.276;10.560;2023-02-02T02:06:08;15.63;;;1.33;;
75990;SDS011;64673;52.276;10.560;2023-02-02T02:08:42;7.72;;;1.05;;
75990;SDS011;64673;52.276;10.560;2023-02-02T02:11:11;8.05;;;1.60;;
75990;SDS011;64673;52.276;10.560;2023-02-02T02:13:36;10.13;;;1.10;;
75990;SDS011;64673;52.276;10.560;2023-02-02T02:16:35;6.20;;;1.20;;
75990;SDS011;64673;52.276;10.560;2023-02-02T02:25:01;7.88;;;1.20;;
75990;SDS011;64673;52.276;10.560;2023-02-02T02:36:38;3.08;;;0.60;;
75990;SDS011;64673;52.276;10.560;2023-02-02T02:39:14;6.05;;;1.17;;
75990;SDS011;64673;52.276;10.560;2023-02-02T02:41:48;7.78;;;1.08;;
75990;SDS011;64673;52.276;10.560;2023-02-02T02:44:18;14.27;;;1.30;;
75990;SDS011;64673;52.276;10.560;2023-02-02T02:46:45;7.93;;;1.45;;
75990;SDS011;64673;52.276;10.560;2023-02-02T02:49:11;7.53;;;1.00;;
75990;SDS011;64673;52.276;10.560;2023-02-02T02:54:15;12.57;;;1.40;;
75990;SDS011;64673;52.276;10.560;2023-02-02T03:08:04;9.20;;;2.03;;
75990;SDS011;64673;52.276;10.560;2023-02-02T03:10:52;8.25;;;1.10;;
75990;SDS011;64673;52.276;10.560;2023-02-02T03:13:19;5.65;;;0.90;;
75990;SDS011;64673;52.276;10.560;2023-02-02T03:15:44;9.02;;;1.20;;
75990;SDS011;64673;52.276;10.560;2023-02-02T03:18:11;12.27;;;1.35;;
75990;SDS011;64673;52.276;10.560;2023-02-02T03:20:39;5.50;;;1.42;;
75990;SDS011;64673;52.276;10.560;2023-02-02T03:23:04;7.85;;;1.00;;
75990;SDS011;64673;52.276;10.560;2023-02-02T03:25:30;11.77;;;1.17;;
75990;SDS011;64673;52.276;10.560;2023-02-02T03:27:55;9.18;;;1.10;;
75990;SDS011;64673;52.276;10.560;2023-02-02T03:30:22;12.55;;;1.38;;
75990;SDS011;64673;52.276;10.560;2023-02-02T03:32:48;4.88;;;0.85;;
75990;SDS011;64673;52.276;10.560;2023-02-02T03:35:15;8.43;;;0.88;;
75990;SDS011;64673;52.276;10.560;2023-02-02T03:37:40;7.43;;;1.23;;
75990;SDS011;64673;52.276;10.560;2023-02-02T03:40:06;11.43;;;0.90;;
75990;SDS011;64673;52.276;10.560;2023-02-02T03:42:31;6.70;;;1.15;;
75990;SDS011;64673;52.276;10.560;2023-02-02T03:44:57;12.93;;;1.35;;
75990;SDS011;64673;52.276;10.560;2023-02-02T03:47:22;10.70;;;1.25;;
75990;SDS011;64673;52.276;10.560;2023-02-02T03:49:48;9.70;;;1.13;;
75990;SDS011;64673;52.276;10.560;2023-02-02T03:52:13;10.48;;;1.48;;
75990;SDS011;64673;52.276;10.560;2023-02-02T03:54:38;8.20;;;1.50;;
75990;SDS011;64673;52.276;10.560;2023-02-02T03:57:04;7.63;;;1.83;;
75990;SDS011;64673;52.276;10.560;2023-02-02T03:59:29;7.55;;;1.70;;
75990;SDS011;64673;52.276;10.560;2023-02-02T04:01:54;9.25;;;1.50;;
75990;SDS011;64673;52.276;10.560;2023-02-02T04:04:19;7.75;;;1.17;;
75990;SDS011;64673;52.276;10.560;2023-02-02T04:06:45;12.23;;;1.42;;
75990;SDS011;64673;52.276;10.560;2023-02-02T04:09:10;5.40;;;1.05;;
75990;SDS011;64673;52.276;10.560;2023-02-02T04:11:36;8.40;;;0.98;;
75990;SDS011;64673;52.276;10.560;2023-02-02T04:14:01;14.95;;;1.58;;
75990;SDS011;64673;52.276;10.560;2023-02-02T04:16:26;10.13;;;1.38;;
75990;SDS011;64673;52.276;10.560;2023-02-02T04:18:51;10.32;;;1.10;;
75990;SDS011;64673;52.276;10.560;2023-02-02T04:21:17;13.35;;;3.85;;
75990;SDS011;64673;52.276;10.560;2023-02-02T04:23:43;8.02;;;1.00;;
75990;SDS011;64673;52.276;10.560;2023-02-02T04:26:09;3.25;;;0.90;;
75990;SDS011;64673;52.276;10.560;2023-02-02T04:28:34;10.50;;;1.17;;
75990;SDS011;64673;52.276;10.560;2023-02-02T04:30:59;8.98;;;1.30;;
75990;SDS011;64673;52.276;10.560;2023-02-02T04:33:25;10.82;;;1.27;;
75990;SDS011;64673;52.276;10.560;2023-02-02T04:35:52;7.63;;;1.23;;
75990;SDS011;64673;52.276;10.560;2023-02-02T04:38:17;13.00;;;1.25;;
75990;SDS011;64673;52.276;10.560;2023-02-02T04:40:43;9.90;;;0.90;;
75990;SDS011;64673;52.276;10.560;2023-02-02T04:43:10;11.77;;;3.35;;
75990;SDS011;64673;52.276;10.560;2023-02-02T04:45:36;6.65;;;1.20;;
75990;SDS011;64673;52.276;10.560;2023-02-02T04:48:02;9.07;;;1.17;;
75990;SDS011;64673;52.276;10.560;2023-02-02T04:50:28;12.10;;;1.63;;
75990;SDS011;64673;52.276;10.560;2023-02-02T04:52:53;8.73;;;1.42;;
75990;SDS011;64673;52.276;10.560;2023-02-02T04:55:18;7.57;;;0.90;;
75990;SDS011;64673;52.276;10.560;2023-02-02T04:57:44;5.75;;;0.88;;
75990;SDS011;64673;52.276;10.560;2023-02-02T05:00:09;13.75;;;1.38;;
75990;SDS011;64673;52.276;10.560;2023-02-02T05:02:37;11.82;;;1.13;;
75990;SDS011;64673;52.276;10.560;2023-02-02T05:05:04;13.05;;;1.25;;
75990;SDS011;64673;52.276;10.560;2023-02-02T05:07:30;8.65;;;1.30;;
75990;SDS011;64673;52.276;10.560;2023-02-02T05:09:56;8.70;;;1.30;;
75990;SDS011;64673;52.276;10.560;2023-02-02T05:12:21;13.80;;;1.50;;
75990;SDS011;64673;52.276;10.560;2023-02-02T05:14:46;7.70;;;1.80;;
75990;SDS011;64673;52.276;10.560;2023-02-02T05:17:12;10.13;;;1.00;;
75990;SDS011;64673;52.276;10.560;2023-02-02T05:19:37;9.98;;;1.10;;
75990;SDS011;64673;52.276;10.560;2023-02-02T05:22:02;6.75;;;1.20;;
75990;SDS011;64673;52.276;10.560;2023-02-02T05:24:28;10.38;;;1.20;;
75990;SDS011;64673;52.276;10.560;2023-02-02T05:26:54;6.65;;;0.82;;
75990;SDS011;64673;52.276;10.560;2023-02-02T05:29:22;10.52;;;1.23;;
75990;SDS011;64673;52.276;10.560;2023-02-02T05:31:48;10.95;;;1.80;;
75990;SDS011;64673;52.276;10.560;2023-02-02T05:34:14;8.98;;;1.65;;
75990;SDS011;64673;52.276;10.560;2023-02-02T05:36:39;9.10;;;1.40;;
75990;SDS011;64673;52.276;10.560;2023-02-02T05:39:05;6.50;;;1.10;;
75990;SDS011;64673;52.276;10.560;2023-02-02T05:41:30;10.35;;;1.58;;
75990;SDS011;64673;52.276;10.560;2023-02-02T05:43:57;21.65;;;2.03;;
75990;SDS011;64673;52.276;10.560;2023-02-02T05:46:23;12.60;;;1.63;;
75990;SDS011;64673;52.276;10.560;2023-02-02T05:48:49;9.45;;;1.50;;
75990;SDS011;64673;52.276;10.560;2023-02-02T05:51:18;8.00;;;2.22;;
75990;SDS011;64673;52.276;10.560;2023-02-02T05:53:45;14.38;;;1.73;;
75990;SDS011;64673;52.276;10.560;2023-02-02T05:56:11;14.10;;;1.20;;
75990;SDS011;64673;52.276;10.560;2023-02-02T05:58:37;9.23;;;1.00;;
75990;SDS011;64673;52.276;10.560;2023-02-02T06:01:03;11.68;;;1.58;;
75990;SDS011;64673;52.276;10.560;2023-02-02T06:03:28;9.25;;;1.38;;
75990;SDS011;64673;52.276;10.560;2023-02-02T06:05:53;9.18;;;1.48;;
75990;SDS011;64673;52.276;10.560;2023-02-02T06:08:19;11.45;;;1.52;;
75990;SDS011;64673;52.276;10.560;2023-02-02T06:10:44;13.10;;;1.77;;
75990;SDS011;64673;52.276;10.560;2023-02-02T06:13:10;6.55;;;1.15;;
75990;SDS011;64673;52.276;10.560;2023-02-02T06:15:35;12.93;;;1.75;;
75990;SDS011;64673;52.276;10.560;2023-02-02T06:18:01;11.05;;;2.17;;
75990;SDS011;64673;52.276;10.560;2023-02-02T06:20:27;6.90;;;1.27;;
75990;SDS011;64673;52.276;10.560;2023-02-02T06:22:53;12.40;;;1.67;;
75990;SDS011;64673;52.276;10.560;2023-02-02T06:25:19;12.88;;;1.60;;
75990;SDS011;64673;52.276;10.560;2023-02-02T06:27:44;11.93;;;1.60;;
75990;SDS011;64673;52.276;10.560;2023-02-02T06:30:10;6.32;;;1.35;;
75990;SDS011;64673;52.276;10.560;2023-02-02T06:32:36;15.52;;;1.50;;
75990;SDS011;64673;52.276;10.560;2023-02-02T06:35:03;15.40;;;1.75;;
75990;SDS011;64673;52.276;10.560;2023-02-02T06:37:29;10.00;;;1.77;;
75990;SDS011;64673;52.276;10.560;2023-02-02T06:39:54;6.88;;;1.20;;
75990;SDS011;64673;52.276;10.560;2023-02-02T06:42:20;15.65;;;1.75;;
75990;SDS011;64673;52.276;10.560;2023-02-02T06:44:45;12.15;;;1.35;;
75990;SDS011;64673;52.276;10.560;2023-02-02T06:47:10;9.35;;;1.30;;
75990;SDS011;64673;52.276;10.560;2023-02-02T06:49:35;8.02;;;1.98;;
75990;SDS011;64673;52.276;10.560;2023-02-02T06:52:01;12.05;;;1.85;;
75990;SDS011;64673;52.276;10.560;2023-02-02T06:54:26;20.95;;;1.92;;
75990;SDS011;64673;52.276;10.560;2023-02-02T06:56:51;7.70;;;1.20;;
75990;SDS011;64673;52.276;10.560;2023-02-02T06:59:17;8.98;;;1.23;;
75990;SDS011;64673;52.276;10.560;2023-02-02T07:01:44;10.13;;;1.25;;
75990;SDS011;64673;52.276;10.560;2023-02-02T07:04:10;12.07;;;1.30;;
75990;SDS011;64673;52.276;10.560;2023-02-02T07:06:35;10.30;;;1.00;;
75990;SDS011;64673;52.276;10.560;2023-02-02T07:09:00;7.07;;;1.30;;
75990;SDS011;64673;52.276;10.560;2023-02-02T07:11:26;10.52;;;1.70;;
75990;SDS011;64673;52.276;10.560;2023-02-02T07:13:51;13.40;;;1.30;;
75990;SDS011;64673;52.276;10.560;2023-02-02T07:16:17;9.50;;;1.52;;
75990;SDS011;64673;52.276;10.560;2023-02-02T07:18:43;7.78;;;0.82;;
75990;SDS011;64673;52.276;10.560;2023-02-02T07:21:08;16.77;;;1.77;;
75990;SDS011;64673;52.276;10.560;2023-02-02T07:23:41;4.80;;;0.90;;
75990;SDS011;64673;52.276;10.560;2023-02-02T07:26:07;8.95;;;1.73;;
75990;SDS011;64673;52.276;10.560;2023-02-02T07:28:34;10.18;;;1.70;;
75990;SDS011;64673;52.276;10.560;2023-02-02T07:31:00;15.02;;;1.33;;
75990;SDS011;64673;52.276;10.560;2023-02-02T07:33:36;9.52;;;1.50;;
75990;SDS011;64673;52.276;10.560;2023-02-02T07:36:04;14.85;;;2.20;;
75990;SDS011;64673;52.276;10.560;2023-02-02T07:38:30;13.02;;;1.58;;
75990;SDS011;64673;52.276;10.560;2023-02-02T07:40:55;9.27;;;1.65;;
75990;SDS011;64673;52.276;10.560;2023-02-02T07:43:23;14.80;;;1.83;;
75990;SDS011;64673;52.276;10.560;2023-02-02T07:45:48;11.23;;;1.10;;
75990;SDS011;64673;52.276;10.560;2023-02-02T07:48:14;10.53;;;1.03;;
75990;SDS011;64673;52.276;10.560;2023-02-02T07:50:40;11.80;;;1.67;;
75990;SDS011;64673;52.276;10.560;2023-02-02T07:53:05;9.60;;;1.33;;
75990;SDS011;64673;52.276;10.560;2023-02-02T07:55:30;8.07;;;1.20;;
75990;SDS011;64673;52.276;10.560;2023-02-02T07:57:55;9.93;;;1.10;;
75990;SDS011;64673;52.276;10.560;2023-02-02T08:00:23;10.50;;;1.70;;
75990;SDS011;64673;52.276;10.560;2023-02-02T08:02:49;14.38;;;1.20;;
75990;SDS011;64673;52.276;10.560;2023-02-02T08:05:14;13.25;;;1.33;;
75990;SDS011;64673;52.276;10.560;2023-02-02T08:07:39;15.80;;;2.30;;
75990;SDS011;64673;52.276;10.560;2023-02-02T08:10:05;11.98;;;1.50;;
75990;SDS011;64673;52.276;10.560;2023-02-02T08:12:30;13.55;;;1.48;;
75990;SDS011;64673;52.276;10.560;2023-02-02T08:14:56;14.88;;;1.92;;
75990;SDS011;64673;52.276;10.560;2023-02-02T08:17:23;10.18;;;1.30;;
75990;SDS011;64673;52.276;10.560;2023-02-02T08:19:48;8.93;;;1.08;;
75990;SDS011;64673;52.276;10.560;2023-02-02T08:22:13;13.52;;;1.80;;
75990;SDS011;64673;52.276;10.560;2023-02-02T08:24:39;8.48;;;1.25;;
75990;SDS011;64673;52.276;10.560;2023-02-02T08:27:06;7.43;;;0.90;;
75990;SDS011;64673;52.276;10.560;2023-02-02T08:29:33;9.88;;;1.40;;
75990;SDS011;64673;52.276;10.560;2023-02-02T08:32:02;14.75;;;2.08;;
75990;SDS011;64673;52.276;10.560;2023-02-02T08:34:28;14.50;;;1.58;;
75990;SDS011;64673;52.276;10.560;2023-02-02T08:36:54;12.43;;;1.65;;
75990;SDS011;64673;52.276;10.560;2023-02-02T08:39:21;14.25;;;2.25;;
75990;SDS011;64673;52.276;10.560;2023-02-02T08:41:46;8.88;;;1.30;;
75990;SDS011;64673;52.276;10.560;2023-02-02T08:44:13;8.25;;;1.30;;
75990;SDS011;64673;52.276;10.560;2023-02-02T08:46:39;8.48;;;1.63;;
75990;SDS011;64673;52.276;10.560;2023-02-02T08:49:06;12.15;;;1.73;;
75990;SDS011;64673;52.276;10.560;2023-02-02T08:51:34;13.95;;;1.60;;
75990;SDS011;64673;52.276;10.560;2023-02-02T08:53:59;13.20;;;1.50;;
75990;SDS011;64673;52.276;10.560;2023-02-02T08:56:24;12.98;;;1.83;;
75990;SDS011;64673;52.276;10.560;2023-02-02T08:58:51;6.32;;;0.85;;
75990;SDS011;64673;52.276;10.560;2023-02-02T09:01:26;12.85;;;1.75;;
75990;SDS011;64673;52.276;10.560;2023-02-02T09:03:53;14.25;;;2.00;;
75990;SDS011;64673;52.276;10.560;2023-02-02T09:06:20;18.05;;;3.13;;
75990;SDS011;64673;52.276;10.560;2023-02-02T09:08:45;19.17;;;2.00;;
75990;SDS011;64673;52.276;10.560;2023-02-02T09:11:15;18.58;;;2.30;;
75990;SDS011;64673;52.276;10.560;2023-02-02T09:13:42;12.63;;;1.48;;
75990;SDS011;64673;52.276;10.560;2023-02-02T09:16:13;9.27;;;1.42;;
75990;SDS011;64673;52.276;10.560;2023-02-02T09:18:40;13.38;;;3.45;;
75990;SDS011;64673;52.276;10.560;2023-02-02T09:21:07;5.28;;;1.30;;
75990;SDS011;64673;52.276;10.560;2023-02-02T09:23:35;10.68;;;1.83;;
75990;SDS011;64673;52.276;10.560;2023-02-02T09:26:21;4.70;;;1.30;;
75990;SDS011;64673;52.276;10.560;2023-02-02T09:28:49;5.32;;;1.42;;
75990;SDS011;64673;52.276;10.560;2023-02-02T09:31:16;10.75;;;1.90;;
75990;SDS011;64673;52.276;10.560;2023-02-02T09:33:42;16.38;;;1.80;;
75990;SDS011;64673;52.276;10.560;2023-02-02T09:36:09;9.93;;;1.38;;
75990;SDS011;64673;52.276;10.560;2023-02-02T09:38:37;11.20;;;1.77;;
75990;SDS011;64673;52.276;10.560;2023-02-02T09:49:20;12.52;;;1.33;;
75990;SDS011;64673;52.276;10.560;2023-02-02T09:51:53;15.15;;;1.70;;
75990;SDS011;64673;52.276;10.560;2023-02-02T09:54:27;17.08;;;1.67;;
75990;SDS011;64673;52.276;10.560;2023-02-02T09:57:00;9.23;;;1.55;;
75990;SDS011;64673;52.276;10.560;2023-02-02T09:59:33;11.27;;;2.47;;
75990;SDS011;64673;52.276;10.560;2023-02-02T10:02:05;11.60;;;2.38;;
75990;SDS011;64673;52.276;10.560;2023-02-02T10:04:42;13.93;;;2.08;;
75990;SDS011;64673;52.276;10.560;2023-02-02T10:07:14;12.98;;;1.30;;
75990;SDS011;64673;52.276;10.560;2023-02-02T10:09:45;10.82;;;1.40;;
75990;SDS011;64673;52.276;10.560;2023-02-02T10:23:12;8.00;;;1.40;;
75990;SDS011;64673;52.276;10.560;2023-02-02T10:25:44;11.75;;;2.00;;
75990;SDS011;64673;52.276;10.560;2023-02-02T10:28:18;11.93;;;2.17;;
75990;SDS011;64673;52.276;10.560;2023-02-02T10:30:52;13.45;;;1.55;;
75990;SDS011;64673;52.276;10.560;2023-02-02T10:33:37;12.45;;;1.70;;
75990;SDS011;64673;52.276;10.560;2023-02-02T10:36:13;16.88;;;2.05;;
75990;SDS011;64673;52.276;10.560;2023-02-02T10:41:38;12.90;;;1.60;;
75990;SDS011;64673;52.276;10.560;2023-02-02T10:44:32;12.40;;;2.22;;
75990;SDS011;64673;52.276;10.560;2023-02-02T10:47:04;13.43;;;1.50;;
75990;SDS011;64673;52.276;10.560;2023-02-02T11:02:47;6.50;;;1.15;;
75990;SDS011;64673;52.276;10.560;2023-02-02T11:05:18;7.65;;;1.23;;
75990;SDS011;64673;52.276;10.560;2023-02-02T11:08:47;12.38;;;1.63;;
75990;SDS011;64673;52.276;10.560;2023-02-02T11:11:18;6.60;;;1.17;;
75990;SDS011;64673;52.276;10.560;2023-02-02T11:14:33;6.18;;;1.40;;
75990;SDS011;64673;52.276;10.560;2023-02-02T11:16:35;9.20;;;1.58;;
75990;SDS011;64673;52.276;10.560;2023-02-02T11:21:46;5.60;;;1.33;;
75990;SDS011;64673;52.276;10.560;2023-02-02T11:24:25;10.48;;;2.20;;
75990;SDS011;64673;52.276;10.560;2023-02-02T11:26:53;8.93;;;1.45;;
75990;SDS011;64673;52.276;10.560;2023-02-02T11:29:27;11.15;;;1.73;;
75990;SDS011;64673;52.276;10.560;2023-02-02T11:37:25;8.45;;;1.08;;
75990;SDS011;64673;52.276;10.560;2023-02-02T11:39:51;11.77;;;2.05;;
75990;SDS011;64673;52.276;10.560;2023-02-02T11:42:17;11.68;;;1.33;;
75990;SDS011;64673;52.276;10.560;2023-02-02T11:44:45;7.82;;;1.05;;
75990;SDS011;64673;52.276;10.560;2023-02-02T11:47:17;8.02;;;1.40;;
75990;SDS011;64673;52.276;10.560;2023-02-02T11:49:45;10.23;;;1.85;;
75990;SDS011;64673;52.276;10.560;2023-02-02T11:52:14;8.32;;;1.42;;
75990;SDS011;64673;52.276;10.560;2023-02-02T11:54:44;6.75;;;1.30;;
75990;SDS011;64673;52.276;10.560;2023-02-02T11:57:15;6.05;;;1.00;;
75990;SDS011;64673;52.276;10.560;2023-02-02T11:59:44;7.97;;;1.00;;
75990;SDS011;64673;52.276;10.560;2023-02-02T12:04:44;4.32;;;0.93;;
75990;SDS011;64673;52.276;10.560;2023-02-02T12:07:53;9.82;;;1.35;;
75990;SDS011;64673;52.276;10.560;2023-02-02T12:10:12;8.60;;;1.00;;
75990;SDS011;64673;52.276;10.560;2023-02-02T12:12:44;15.77;;;1.60;;
75990;SDS011;64673;52.276;10.560;2023-02-02T12:17:51;7.40;;;1.02;;
75990;SDS011;64673;52.276;10.560;2023-02-02T12:45:41;5.25;;;1.00;;
75990;SDS011;64673;52.276;10.560;2023-02-02T12:56:31;8.20;;;1.20;;
75990;SDS011;64673;52.276;10.560;2023-02-02T13:07:19;8.63;;;1.02;;
75990;SDS011;64673;52.276;10.560;2023-02-02T13:10:06;8.45;;;1.10;;
75990;SDS011;64673;52.276;10.560;2023-02-02T13:12:38;7.40;;;0.75;;
75990;SDS011;64673;52.276;10.560;2023-02-02T13:15:15;2.80;;;0.60;;
75990;SDS011;64673;52.276;10.560;2023-02-02T13:17:58;7.40;;;1.23;;
75990;SDS011;64673;52.276;10.560;2023-02-02T13:20:48;5.05;;;0.80;;
75990;SDS011;64673;52.276;10.560;2023-02-02T13:26:03;5.72;;;1.02;;
75990;SDS011;64673;52.276;10.560;2023-02-02T13:31:22;3.92;;;1.17;;
75990;SDS011;64673;52.276;10.560;2023-02-02T13:34:04;5.65;;;1.08;;
75990;SDS011;64673;52.276;10.560;2023-02-02T13:36:43;5.13;;;0.90;;
75990;SDS011;64673;52.276;10.560;2023-02-02T13:39:16;7.07;;;1.45;;
75990;SDS011;64673;52.276;10.560;2023-02-02T13:41:46;7.38;;;1.13;;
75990;SDS011;64673;52.276;10.560;2023-02-02T13:44:31;6.50;;;0.60;;
75990;SDS011;64673;52.276;10.560;2023-02-02T13:47:05;5.38;;;0.65;;
75990;SDS011;64673;52.276;10.560;2023-02-02T13:49:39;11.52;;;0.80;;
75990;SDS011;64673;52.276;10.560;2023-02-02T13:55:19;6.97;;;1.13;;
75990;SDS011;64673;52.276;10.560;2023-02-02T13:58:06;6.25;;;0.90;;
75990;SDS011;64673;52.276;10.560;2023-02-02T14:00:58;6.78;;;1.08;;
75990;SDS011;64673;52.276;10.560;2023-02-02T14:03:39;5.82;;;0.80;;
75990;SDS011;64673;52.276;10.560;2023-02-02T14:06:18;11.35;;;1.75;;
75990;SDS011;64673;52.276;10.560;2023-02-02T14:08:47;6.03;;;0.98;;
75990;SDS011;64673;52.276;10.560;2023-02-02T14:11:27;14.30;;;1.60;;
75990;SDS011;64673;52.276;10.560;2023-02-02T14:13:57;4.85;;;0.77;;
75990;SDS011;64673;52.276;10.560;2023-02-02T14:16:49;4.88;;;0.93;;
75990;SDS011;64673;52.276;10.560;2023-02-02T14:21:59;10.27;;;1.30;;
75990;SDS011;64673;52.276;10.560;2023-02-02T14:40:28;4.95;;;1.00;;
75990;SDS011;64673;52.276;10.560;2023-02-02T14:48:31;6.38;;;0.98;;
75990;SDS011;64673;52.276;10.560;2023-02-02T14:50:57;9.20;;;1.05;;
75990;SDS011;64673;52.276;10.560;2023-02-02T14:53:31;10.60;;;1.67;;
75990;SDS011;64673;52.276;10.560;2023-02-02T15:00:54;5.10;;;0.90;;
75990;SDS011;64673;52.276;10.560;2023-02-02T15:03:36;8.35;;;1.17;;
75990;SDS011;64673;52.276;10.560;2023-02-02T15:09:33;8.20;;;1.30;;
75990;SDS011;64673;52.276;10.560;2023-02-02T15:14:28;9.07;;;1.07;;
75990;SDS011;64673;52.276;10.560;2023-02-02T15:16:55;10.57;;;1.08;;
75990;SDS011;64673;52.276;10.560;2023-02-02T15:19:36;4.88;;;1.15;;
75990;SDS011;64673;52.276;10.560;2023-02-02T15:24:54;8.77;;;0.98;;
75990;SDS011;64673;52.276;10.560;2023-02-02T15:27:23;9.77;;;1.35;;
75990;SDS011;64673;52.276;10.560;2023-02-02T15:29:51;9.82;;;1.33;;
75990;SDS011;64673;52.276;10.560;2023-02-02T15:32:21;10.40;;;1.58;;
75990;SDS011;64673;52.276;10.560;2023-02-02T15:34:53;6.75;;;0.82;;
75990;SDS011;64673;52.276;10.560;2023-02-02T15:37:30;7.25;;;1.98;;
75990;SDS011;64673;52.276;10.560;2023-02-02T15:40:05;6.90;;;1.30;;
75990;SDS011;64673;52.276;10.560;2023-02-02T15:42:39;7.75;;;1.60;;
75990;SDS011;64673;52.276;10.560;2023-02-02T15:45:31;6.53;;;1.20;;
75990;SDS011;64673;52.276;10.560;2023-02-02T15:50:45;5.93;;;1.17;;
75990;SDS011;64673;52.276;10.560;2023-02-02T15:53:54;6.22;;;1.25;;
75990;SDS011;64673;52.276;10.560;2023-02-02T15:56:25;5.25;;;1.10;;
75990;SDS011;64673;52.276;10.560;2023-02-02T15:58:54;8.55;;;1.10;;
75990;SDS011;64673;52.276;10.560;2023-02-02T16:01:23;5.07;;;1.25;;
75990;SDS011;64673;52.276;10.560;2023-02-02T16:03:51;5.35;;;1.25;;
75990;SDS011;64673;52.276;10.560;2023-02-02T16:06:19;13.90;;;1.52;;
75990;SDS011;64673;52.276;10.560;2023-02-02T16:08:45;9.27;;;1.38;;
75990;SDS011;64673;52.276;10.560;2023-02-02T16:11:12;7.20;;;1.55;;
75990;SDS011;64673;52.276;10.560;2023-02-02T16:13:40;4.97;;;1.15;;
75990;SDS011;64673;52.276;10.560;2023-02-02T16:16:22;7.50;;;1.20;;
75990;SDS011;64673;52.276;10.560;2023-02-02T16:19:15;5.72;;;1.25;;
75990;SDS011;64673;52.276;10.560;2023-02-02T16:24:35;5.07;;;1.27;;
75990;SDS011;64673;52.276;10.560;2023-02-02T16:27:04;6.00;;;1.45;;
75990;SDS011;64673;52.276;10.560;2023-02-02T16:29:31;6.38;;;2.00;;
75990;SDS011;64673;52.276;10.560;2023-02-02T16:31:57;5.80;;;1.50;;
75990;SDS011;64673;52.276;10.560;2023-02-02T16:37:14;7.57;;;1.90;;
75990;SDS011;64673;52.276;10.560;2023-02-02T16:39:51;11.48;;;2.75;;
75990;SDS011;64673;52.276;10.560;2023-02-02T16:42:27;9.27;;;2.53;;
75990;SDS011;64673;52.276;10.560;2023-02-02T16:44:54;9.10;;;2.45;;
75990;SDS011;64673;52.276;10.560;2023-02-02T16:52:17;10.67;;;2.30;;
75990;SDS011;64673;52.276;10.560;2023-02-02T16:54:52;10.43;;;2.60;;
75990;SDS011;64673;52.276;10.560;2023-02-02T16:57:26;9.13;;;2.53;;
75990;SDS011;64673;52.276;10.560;2023-02-02T16:59:55;5.30;;;1.92;;
75990;SDS011;64673;52.276;10.560;2023-02-02T17:02:24;11.15;;;2.10;;
75990;SDS011;64673;52.276;10.560;2023-02-02T17:08:01;8.05;;;2.60;;
75990;SDS011;64673;52.276;10.560;2023-02-02T17:10:33;8.48;;;3.20;;
75990;SDS011;64673;52.276;10.560;2023-02-02T17:13:01;9.80;;;3.72;;
75990;SDS011;64673;52.276;10.560;2023-02-02T17:15:49;13.00;;;3.30;;
75990;SDS011;64673;52.276;10.560;2023-02-02T17:18:16;10.82;;;2.80;;
75990;SDS011;64673;52.276;10.560;2023-02-02T17:20:42;7.45;;;2.90;;
75990;SDS011;64673;52.276;10.560;2023-02-02T17:23:07;9.38;;;3.20;;
75990;SDS011;64673;52.276;10.560;2023-02-02T17:25:41;12.85;;;2.42;;
75990;SDS011;64673;52.276;10.560;2023-02-02T17:28:12;15.00;;;3.40;;
75990;SDS011;64673;52.276;10.560;2023-02-02T17:30:40;19.88;;;7.80;;
75990;SDS011;64673;52.276;10.560;2023-02-02T17:33:11;17.58;;;5.70;;
75990;SDS011;64673;52.276;10.560;2023-02-02T17:35:40;13.90;;;4.75;;
75990;SDS011;64673;52.276;10.560;2023-02-02T17:38:07;11.60;;;5.15;;
75990;SDS011;64673;52.276;10.560;2023-02-02T17:40:32;8.70;;;3.63;;
75990;SDS011;64673;52.276;10.560;2023-02-02T17:42:58;10.68;;;3.78;;